sensor_id;sensor_type;location;lat;lon;timestamp;temperature;humidity
24148;DHT22;12309;51.450;-2.624;2023-11-18T00:00:19;9.70;99.90
24148;DHT22;12309;51.450;-2.624;2023-11-18T00:02:45;9.80;99.90
24148;DHT22;12309;51.450;-2.624;2023-11-18T00:05:12;9.90;99.90
24148;DHT22;12309;51.450;-2.624;2023-11-18T00:07:38;10.10;99.90
24148;DHT22;12309;51.450;-2.624;2023-11-18T00:10:04;10.00;99.90
24148;DHT22;12309;51.450;-2.624;2023-11-18T00:12:30;9.90;99.90
24148;DHT22;12309;51.450;-2.624;2023-11-18T00:14:56;9.80;99.90
24148;DHT22;12309;51.450;-2.624;2023-11-18T00:19:48;10.00;99.90
24148;DHT22;12309;51.450;-2.624;2023-11-18T00:22:13;10.00;99.90
24148;DHT22;12309;51.450;-2.624;2023-11-18T00:24:39;10.00;99.90
24148;DHT22;12309;51.450;-2.624;2023-11-18T00:27:05;10.20;99.90
24148;DHT22;12309;51.450;-2.624;2023-11-18T00:29:34;10.20;99.90
24148;DHT22;12309;51.450;-2.624;2023-11-18T00:32:03;10.00;99.90
24148;DHT22;12309;51.450;-2.624;2023-11-18T00:34:29;10.20;99.90
24148;DHT22;12309;51.450;-2.624;2023-11-18T00:36:55;10.40;99.90
24148;DHT22;12309;51.450;-2.624;2023-11-18T00:39:25;10.40;99.90
24148;DHT22;12309;51.450;-2.624;2023-11-18T00:41:50;10.40;99.90
24148;DHT22;12309;51.450;-2.624;2023-11-18T00:44:16;10.70;99.90
24148;DHT22;12309;51.450;-2.624;2023-11-18T00:46:42;10.60;99.90
24148;DHT22;12309;51.450;-2.624;2023-11-18T00:49:07;10.70;99.90
24148;DHT22;12309;51.450;-2.624;2023-11-18T00:51:33;10.80;99.90
24148;DHT22;12309;51.450;-2.624;2023-11-18T00:53:59;10.70;99.90
24148;DHT22;12309;51.450;-2.624;2023-11-18T00:56:27;10.60;99.90
24148;DHT22;12309;51.450;-2.624;2023-11-18T00:58:54;10.50;99.90
24148;DHT22;12309;51.450;-2.624;2023-11-18T01:01:20;10.80;99.90
24148;DHT22;12309;51.450;-2.624;2023-11-18T01:03:47;10.90;99.90
24148;DHT22;12309;51.450;-2.624;2023-11-18T01:06:13;10.80;99.90
24148;DHT22;12309;51.450;-2.624;2023-11-18T01:08:43;10.70;99.90
24148;DHT22;12309;51.450;-2.624;2023-11-18T01:11:09;10.80;99.90
24148;DHT22;12309;51.450;-2.624;2023-11-18T01:13:35;10.90;99.90
24148;DHT22;12309;51.450;-2.624;2023-11-18T01:16:00;11.10;99.90
24148;DHT22;12309;51.450;-2.624;2023-11-18T01:18:27;11.00;99.90
24148;DHT22;12309;51.450;-2.624;2023-11-18T01:20:53;11.10;99.90
24148;DHT22;12309;51.450;-2.624;2023-11-18T01:23:19;11.10;99.90
24148;DHT22;12309;51.450;-2.624;2023-11-18T01:25:45;11.10;99.90
24148;DHT22;12309;51.450;-2.624;2023-11-18T01:28:10;11.10;99.90
24148;DHT22;12309;51.450;-2.624;2023-11-18T01:30:36;10.90;99.90
24148;DHT22;12309;51.450;-2.624;2023-11-18T01:33:02;11.20;99.90
24148;DHT22;12309;51.450;-2.624;2023-11-18T01:35:29;10.90;99.90
24148;DHT22;12309;51.450;-2.624;2023-11-18T01:37:56;11.30;99.90
24148;DHT22;12309;51.450;-2.624;2023-11-18T01:40:22;11.10;99.90
24148;DHT22;12309;51.450;-2.624;2023-11-18T01:42:49;11.00;99.90
24148;DHT22;12309;51.450;-2.624;2023-11-18T01:45:15;11.30;99.90
24148;DHT22;12309;51.450;-2.624;2023-11-18T01:47:43;10.80;99.90
24148;DHT22;12309;51.450;-2.624;2023-11-18T01:50:10;11.30;99.90
24148;DHT22;12309;51.450;-2.624;2023-11-18T01:52:37;11.50;99.90
24148;DHT22;12309;51.450;-2.624;2023-11-18T01:55:04;11.40;99.90
24148;DHT22;12309;51.450;-2.624;2023-11-18T01:57:33;11.50;99.90
24148;DHT22;12309;51.450;-2.624;2023-11-18T01:59:59;11.80;99.90
24148;DHT22;12309;51.450;-2.624;2023-11-18T02:02:26;11.60;99.90
24148;DHT22;12309;51.450;-2.624;2023-11-18T02:04:51;11.60;99.90
24148;DHT22;12309;51.450;-2.624;2023-11-18T02:07:18;11.40;99.90
24148;DHT22;12309;51.450;-2.624;2023-11-18T02:09:44;11.50;99.90
24148;DHT22;12309;51.450;-2.624;2023-11-18T02:12:31;11.50;99.90
24148;DHT22;12309;51.450;-2.624;2023-11-18T02:15:05;10.90;99.90
24148;DHT22;12309;51.450;-2.624;2023-11-18T02:17:38;11.40;99.90
24148;DHT22;12309;51.450;-2.624;2023-11-18T02:20:04;11.90;99.90
24148;DHT22;12309;51.450;-2.624;2023-11-18T02:22:41;11.20;99.90
24148;DHT22;12309;51.450;-2.624;2023-11-18T02:25:09;11.80;99.90
24148;DHT22;12309;51.450;-2.624;2023-11-18T02:27:36;11.90;99.90
24148;DHT22;12309;51.450;-2.624;2023-11-18T02:30:03;11.80;99.90
24148;DHT22;12309;51.450;-2.624;2023-11-18T02:32:44;11.70;99.90
24148;DHT22;12309;51.450;-2.624;2023-11-18T02:35:27;11.70;99.90
24148;DHT22;12309;51.450;-2.624;2023-11-18T02:37:54;11.60;99.90
24148;DHT22;12309;51.450;-2.624;2023-11-18T02:40:26;11.90;99.90
24148;DHT22;12309;51.450;-2.624;2023-11-18T02:42:57;11.60;99.90
24148;DHT22;12309;51.450;-2.624;2023-11-18T02:45:24;11.70;99.90
24148;DHT22;12309;51.450;-2.624;2023-11-18T02:47:50;11.50;99.90
24148;DHT22;12309;51.450;-2.624;2023-11-18T02:50:17;11.70;99.90
24148;DHT22;12309;51.450;-2.624;2023-11-18T02:52:45;11.80;99.90
24148;DHT22;12309;51.450;-2.624;2023-11-18T02:55:10;11.80;99.90
24148;DHT22;12309;51.450;-2.624;2023-11-18T02:57:37;11.50;99.90
24148;DHT22;12309;51.450;-2.624;2023-11-18T03:00:06;11.40;99.90
24148;DHT22;12309;51.450;-2.624;2023-11-18T03:05:06;11.50;99.90
24148;DHT22;12309;51.450;-2.624;2023-11-18T03:09:59;11.80;99.90
24148;DHT22;12309;51.450;-2.624;2023-11-18T03:12:25;11.60;99.90
24148;DHT22;12309;51.450;-2.624;2023-11-18T03:14:54;11.60;99.90
24148;DHT22;12309;51.450;-2.624;2023-11-18T03:17:19;11.70;99.90
24148;DHT22;12309;51.450;-2.624;2023-11-18T03:19:48;11.80;99.90
24148;DHT22;12309;51.450;-2.624;2023-11-18T03:22:15;11.80;99.90
24148;DHT22;12309;51.450;-2.624;2023-11-18T03:24:41;11.80;99.90
24148;DHT22;12309;51.450;-2.624;2023-11-18T03:27:08;12.20;99.90
24148;DHT22;12309;51.450;-2.624;2023-11-18T03:29:34;12.00;99.90
24148;DHT22;12309;51.450;-2.624;2023-11-18T03:32:00;12.00;99.90
24148;DHT22;12309;51.450;-2.624;2023-11-18T03:34:25;12.10;99.90
24148;DHT22;12309;51.450;-2.624;2023-11-18T03:36:51;11.90;99.90
24148;DHT22;12309;51.450;-2.624;2023-11-18T03:39:17;12.30;99.90
24148;DHT22;12309;51.450;-2.624;2023-11-18T03:41:43;12.00;99.90
24148;DHT22;12309;51.450;-2.624;2023-11-18T03:44:13;12.00;99.90
24148;DHT22;12309;51.450;-2.624;2023-11-18T03:46:39;12.10;99.90
24148;DHT22;12309;51.450;-2.624;2023-11-18T03:49:06;12.20;99.90
24148;DHT22;12309;51.450;-2.624;2023-11-18T03:51:32;12.00;99.90
24148;DHT22;12309;51.450;-2.624;2023-11-18T03:53:57;12.00;99.90
24148;DHT22;12309;51.450;-2.624;2023-11-18T03:58:50;12.10;99.90
24148;DHT22;12309;51.450;-2.624;2023-11-18T04:01:22;12.20;99.90
24148;DHT22;12309;51.450;-2.624;2023-11-18T04:03:49;11.80;99.90
24148;DHT22;12309;51.450;-2.624;2023-11-18T04:06:16;12.30;99.90
24148;DHT22;12309;51.450;-2.624;2023-11-18T04:08:45;12.30;99.90
24148;DHT22;12309;51.450;-2.624;2023-11-18T04:16:06;12.40;99.90
24148;DHT22;12309;51.450;-2.624;2023-11-18T04:18:32;12.30;99.90
24148;DHT22;12309;51.450;-2.624;2023-11-18T04:20:57;12.40;99.90
24148;DHT22;12309;51.450;-2.624;2023-11-18T04:23:23;12.60;99.90
24148;DHT22;12309;51.450;-2.624;2023-11-18T04:25:50;12.30;99.90
24148;DHT22;12309;51.450;-2.624;2023-11-18T04:28:15;12.40;99.90
24148;DHT22;12309;51.450;-2.624;2023-11-18T04:30:41;12.40;99.90
24148;DHT22;12309;51.450;-2.624;2023-11-18T04:33:07;12.30;99.90
24148;DHT22;12309;51.450;-2.624;2023-11-18T04:35:32;12.70;99.90
24148;DHT22;12309;51.450;-2.624;2023-11-18T04:40:26;12.60;99.90
24148;DHT22;12309;51.450;-2.624;2023-11-18T04:42:51;12.50;99.90
24148;DHT22;12309;51.450;-2.624;2023-11-18T04:45:17;12.60;99.90
24148;DHT22;12309;51.450;-2.624;2023-11-18T04:47:43;12.60;99.90
24148;DHT22;12309;51.450;-2.624;2023-11-18T04:50:10;12.60;99.90
24148;DHT22;12309;51.450;-2.624;2023-11-18T04:52:36;12.70;99.90
24148;DHT22;12309;51.450;-2.624;2023-11-18T04:55:03;12.60;99.90
24148;DHT22;12309;51.450;-2.624;2023-11-18T04:57:30;13.20;99.90
24148;DHT22;12309;51.450;-2.624;2023-11-18T05:02:22;12.90;99.90
24148;DHT22;12309;51.450;-2.624;2023-11-18T05:07:14;13.00;99.90
24148;DHT22;12309;51.450;-2.624;2023-11-18T05:12:06;13.40;99.90
24148;DHT22;12309;51.450;-2.624;2023-11-18T05:14:32;13.30;99.90
24148;DHT22;12309;51.450;-2.624;2023-11-18T05:16:57;13.30;99.90
24148;DHT22;12309;51.450;-2.624;2023-11-18T05:19:23;13.40;99.90
24148;DHT22;12309;51.450;-2.624;2023-11-18T05:21:49;13.60;99.90
24148;DHT22;12309;51.450;-2.624;2023-11-18T05:24:15;13.60;99.90
24148;DHT22;12309;51.450;-2.624;2023-11-18T05:26:40;13.60;99.90
24148;DHT22;12309;51.450;-2.624;2023-11-18T05:29:06;13.80;99.90
24148;DHT22;12309;51.450;-2.624;2023-11-18T05:31:32;13.80;99.90
24148;DHT22;12309;51.450;-2.624;2023-11-18T05:33:59;13.90;99.90
24148;DHT22;12309;51.450;-2.624;2023-11-18T05:36:24;13.60;99.90
24148;DHT22;12309;51.450;-2.624;2023-11-18T05:38:55;13.60;99.90
24148;DHT22;12309;51.450;-2.624;2023-11-18T05:41:21;14.10;99.90
24148;DHT22;12309;51.450;-2.624;2023-11-18T05:43:57;13.80;99.90
24148;DHT22;12309;51.450;-2.624;2023-11-18T05:46:25;14.20;99.90
24148;DHT22;12309;51.450;-2.624;2023-11-18T05:48:54;14.10;99.90
24148;DHT22;12309;51.450;-2.624;2023-11-18T05:51:25;13.90;99.90
24148;DHT22;12309;51.450;-2.624;2023-11-18T05:53:52;14.00;99.90
24148;DHT22;12309;51.450;-2.624;2023-11-18T05:56:19;14.00;99.90
24148;DHT22;12309;51.450;-2.624;2023-11-18T05:58:47;13.90;99.90
24148;DHT22;12309;51.450;-2.624;2023-11-18T06:01:13;14.20;99.90
24148;DHT22;12309;51.450;-2.624;2023-11-18T06:03:39;13.90;99.90
24148;DHT22;12309;51.450;-2.624;2023-11-18T06:06:08;14.00;99.90
24148;DHT22;12309;51.450;-2.624;2023-11-18T06:08:34;14.10;99.90
24148;DHT22;12309;51.450;-2.624;2023-11-18T06:11:00;13.60;99.90
24148;DHT22;12309;51.450;-2.624;2023-11-18T06:13:31;13.50;99.90
24148;DHT22;12309;51.450;-2.624;2023-11-18T06:15:56;14.00;99.90
24148;DHT22;12309;51.450;-2.624;2023-11-18T06:18:24;14.00;99.90
24148;DHT22;12309;51.450;-2.624;2023-11-18T06:20:49;14.20;99.90
24148;DHT22;12309;51.450;-2.624;2023-11-18T06:23:15;14.20;99.90
24148;DHT22;12309;51.450;-2.624;2023-11-18T06:25:44;14.10;99.90
24148;DHT22;12309;51.450;-2.624;2023-11-18T06:28:11;14.00;99.90
24148;DHT22;12309;51.450;-2.624;2023-11-18T06:30:36;14.00;99.90
24148;DHT22;12309;51.450;-2.624;2023-11-18T06:33:04;14.10;99.90
24148;DHT22;12309;51.450;-2.624;2023-11-18T06:35:29;14.50;99.90
24148;DHT22;12309;51.450;-2.624;2023-11-18T06:37:55;14.30;99.90
24148;DHT22;12309;51.450;-2.624;2023-11-18T06:40:20;14.10;99.90
24148;DHT22;12309;51.450;-2.624;2023-11-18T06:42:47;14.20;99.90
24148;DHT22;12309;51.450;-2.624;2023-11-18T06:45:13;14.10;99.90
24148;DHT22;12309;51.450;-2.624;2023-11-18T06:47:40;14.40;99.90
24148;DHT22;12309;51.450;-2.624;2023-11-18T06:50:10;14.70;99.90
24148;DHT22;12309;51.450;-2.624;2023-11-18T06:52:40;14.20;99.90
24148;DHT22;12309;51.450;-2.624;2023-11-18T06:55:07;14.30;99.90
24148;DHT22;12309;51.450;-2.624;2023-11-18T06:57:34;14.50;99.90
24148;DHT22;12309;51.450;-2.624;2023-11-18T06:59:59;14.50;99.90
24148;DHT22;12309;51.450;-2.624;2023-11-18T07:04:51;14.50;99.90
24148;DHT22;12309;51.450;-2.624;2023-11-18T07:09:43;14.50;99.90
24148;DHT22;12309;51.450;-2.624;2023-11-18T07:12:10;14.50;99.90
24148;DHT22;12309;51.450;-2.624;2023-11-18T07:14:35;14.50;99.90
24148;DHT22;12309;51.450;-2.624;2023-11-18T07:17:01;14.40;99.90
24148;DHT22;12309;51.450;-2.624;2023-11-18T07:21:54;14.80;99.90
24148;DHT22;12309;51.450;-2.624;2023-11-18T07:24:20;14.60;99.90
24148;DHT22;12309;51.450;-2.624;2023-11-18T07:26:45;14.50;99.90
24148;DHT22;12309;51.450;-2.624;2023-11-18T07:29:11;14.30;99.90
24148;DHT22;12309;51.450;-2.624;2023-11-18T07:31:37;14.60;99.90
24148;DHT22;12309;51.450;-2.624;2023-11-18T07:34:05;14.90;99.90
24148;DHT22;12309;51.450;-2.624;2023-11-18T07:36:32;14.60;99.90
24148;DHT22;12309;51.450;-2.624;2023-11-18T07:38:58;14.60;99.90
24148;DHT22;12309;51.450;-2.624;2023-11-18T07:41:27;14.70;99.90
24148;DHT22;12309;51.450;-2.624;2023-11-18T07:43:55;14.80;99.90
24148;DHT22;12309;51.450;-2.624;2023-11-18T07:46:24;14.50;99.90
24148;DHT22;12309;51.450;-2.624;2023-11-18T07:48:51;14.90;99.90
24148;DHT22;12309;51.450;-2.624;2023-11-18T07:51:18;14.80;99.90
24148;DHT22;12309;51.450;-2.624;2023-11-18T07:53:47;14.90;99.90
24148;DHT22;12309;51.450;-2.624;2023-11-18T07:56:13;14.70;99.90
24148;DHT22;12309;51.450;-2.624;2023-11-18T07:58:42;14.70;99.90
24148;DHT22;12309;51.450;-2.624;2023-11-18T08:01:14;15.00;99.90
24148;DHT22;12309;51.450;-2.624;2023-11-18T08:03:42;14.60;99.90
24148;DHT22;12309;51.450;-2.624;2023-11-18T08:06:08;14.80;99.90
24148;DHT22;12309;51.450;-2.624;2023-11-18T08:08:36;14.90;99.90
24148;DHT22;12309;51.450;-2.624;2023-11-18T08:11:06;14.80;99.90
24148;DHT22;12309;51.450;-2.624;2023-11-18T08:13:32;14.90;99.90
24148;DHT22;12309;51.450;-2.624;2023-11-18T08:18:24;15.00;99.90
24148;DHT22;12309;51.450;-2.624;2023-11-18T08:20:50;14.90;99.90
24148;DHT22;12309;51.450;-2.624;2023-11-18T08:23:16;15.10;99.90
24148;DHT22;12309;51.450;-2.624;2023-11-18T08:25:41;15.30;99.90
24148;DHT22;12309;51.450;-2.624;2023-11-18T08:28:08;15.00;99.90
24148;DHT22;12309;51.450;-2.624;2023-11-18T08:30:34;15.00;99.90
24148;DHT22;12309;51.450;-2.624;2023-11-18T08:33:00;15.10;99.90
24148;DHT22;12309;51.450;-2.624;2023-11-18T08:35:26;15.20;99.90
24148;DHT22;12309;51.450;-2.624;2023-11-18T08:37:51;14.90;99.90
24148;DHT22;12309;51.450;-2.624;2023-11-18T08:40:17;15.30;99.90
24148;DHT22;12309;51.450;-2.624;2023-11-18T08:42:52;15.10;99.90
24148;DHT22;12309;51.450;-2.624;2023-11-18T08:45:19;15.30;99.90
24148;DHT22;12309;51.450;-2.624;2023-11-18T08:47:47;15.10;99.90
24148;DHT22;12309;51.450;-2.624;2023-11-18T08:50:14;15.10;99.90
24148;DHT22;12309;51.450;-2.624;2023-11-18T08:52:40;14.80;99.90
24148;DHT22;12309;51.450;-2.624;2023-11-18T08:55:12;15.10;99.90
24148;DHT22;12309;51.450;-2.624;2023-11-18T08:57:49;15.20;99.90
24148;DHT22;12309;51.450;-2.624;2023-11-18T09:00:28;15.10;99.90
24148;DHT22;12309;51.450;-2.624;2023-11-18T09:03:12;15.30;99.90
24148;DHT22;12309;51.450;-2.624;2023-11-18T09:06:06;15.40;99.90
24148;DHT22;12309;51.450;-2.624;2023-11-18T09:08:43;15.50;99.90
24148;DHT22;12309;51.450;-2.624;2023-11-18T09:11:12;15.30;99.90
24148;DHT22;12309;51.450;-2.624;2023-11-18T09:13:44;15.50;99.90
24148;DHT22;12309;51.450;-2.624;2023-11-18T09:16:19;15.40;99.90
24148;DHT22;12309;51.450;-2.624;2023-11-18T09:18:51;13.30;99.90
24148;DHT22;12309;51.450;-2.624;2023-11-18T09:21:17;15.50;99.90
24148;DHT22;12309;51.450;-2.624;2023-11-18T09:23:50;15.60;99.90
24148;DHT22;12309;51.450;-2.624;2023-11-18T09:26:16;15.50;99.90
24148;DHT22;12309;51.450;-2.624;2023-11-18T09:28:42;15.40;99.90
24148;DHT22;12309;51.450;-2.624;2023-11-18T09:31:09;15.30;99.90
24148;DHT22;12309;51.450;-2.624;2023-11-18T09:33:40;15.40;99.90
24148;DHT22;12309;51.450;-2.624;2023-11-18T09:36:11;15.50;99.90
24148;DHT22;12309;51.450;-2.624;2023-11-18T09:38:41;15.60;99.90
24148;DHT22;12309;51.450;-2.624;2023-11-18T09:41:09;15.10;99.90
24148;DHT22;12309;51.450;-2.624;2023-11-18T09:43:38;15.20;99.90
24148;DHT22;12309;51.450;-2.624;2023-11-18T09:46:26;15.20;99.90
24148;DHT22;12309;51.450;-2.624;2023-11-18T09:49:17;15.10;99.90
24148;DHT22;12309;51.450;-2.624;2023-11-18T09:51:55;14.90;99.90
24148;DHT22;12309;51.450;-2.624;2023-11-18T09:57:38;14.70;99.90
24148;DHT22;12309;51.450;-2.624;2023-11-18T10:00:06;14.90;99.90
24148;DHT22;12309;51.450;-2.624;2023-11-18T10:02:51;14.80;99.90
24148;DHT22;12309;51.450;-2.624;2023-11-18T10:05:19;14.80;99.90
24148;DHT22;12309;51.450;-2.624;2023-11-18T10:07:48;14.80;99.90
24148;DHT22;12309;51.450;-2.624;2023-11-18T10:12:45;14.80;99.90
24148;DHT22;12309;51.450;-2.624;2023-11-18T10:15:14;14.80;99.90
24148;DHT22;12309;51.450;-2.624;2023-11-18T10:17:43;14.70;99.90
24148;DHT22;12309;51.450;-2.624;2023-11-18T10:20:47;14.60;99.90
24148;DHT22;12309;51.450;-2.624;2023-11-18T10:23:17;14.70;99.90
24148;DHT22;12309;51.450;-2.624;2023-11-18T10:25:54;14.70;99.90
24148;DHT22;12309;51.450;-2.624;2023-11-18T10:28:29;14.80;99.90
24148;DHT22;12309;51.450;-2.624;2023-11-18T10:31:01;14.80;99.90
24148;DHT22;12309;51.450;-2.624;2023-11-18T10:33:32;14.80;99.90
24148;DHT22;12309;51.450;-2.624;2023-11-18T10:35:58;14.90;99.90
24148;DHT22;12309;51.450;-2.624;2023-11-18T10:38:29;15.00;99.90
24148;DHT22;12309;51.450;-2.624;2023-11-18T10:40:57;15.00;99.90
24148;DHT22;12309;51.450;-2.624;2023-11-18T10:43:23;15.10;99.90
24148;DHT22;12309;51.450;-2.624;2023-11-18T10:46:10;15.10;99.90
24148;DHT22;12309;51.450;-2.624;2023-11-18T10:48:40;15.30;99.90
24148;DHT22;12309;51.450;-2.624;2023-11-18T10:51:09;15.10;99.90
24148;DHT22;12309;51.450;-2.624;2023-11-18T10:53:36;15.20;99.90
24148;DHT22;12309;51.450;-2.624;2023-11-18T10:56:06;15.30;99.90
24148;DHT22;12309;51.450;-2.624;2023-11-18T10:58:41;15.60;99.90
24148;DHT22;12309;51.450;-2.624;2023-11-18T11:01:07;15.80;99.90
24148;DHT22;12309;51.450;-2.624;2023-11-18T11:03:55;15.70;99.90
24148;DHT22;12309;51.450;-2.624;2023-11-18T11:06:26;15.70;99.90
24148;DHT22;12309;51.450;-2.624;2023-11-18T11:08:52;16.90;99.90
24148;DHT22;12309;51.450;-2.624;2023-11-18T11:11:22;17.60;99.90
24148;DHT22;12309;51.450;-2.624;2023-11-18T11:14:00;17.70;99.90
24148;DHT22;12309;51.450;-2.624;2023-11-18T11:16:37;17.50;99.90
24148;DHT22;12309;51.450;-2.624;2023-11-18T11:19:20;17.80;99.90
24148;DHT22;12309;51.450;-2.624;2023-11-18T11:22:03;18.40;99.90
24148;DHT22;12309;51.450;-2.624;2023-11-18T11:25:12;19.10;99.90
24148;DHT22;12309;51.450;-2.624;2023-11-18T11:27:54;19.20;99.90
24148;DHT22;12309;51.450;-2.624;2023-11-18T11:30:37;18.10;99.90
24148;DHT22;12309;51.450;-2.624;2023-11-18T11:33:19;17.30;99.90
24148;DHT22;12309;51.450;-2.624;2023-11-18T11:35:55;16.60;99.90
24148;DHT22;12309;51.450;-2.624;2023-11-18T11:38:25;16.30;99.90
24148;DHT22;12309;51.450;-2.624;2023-11-18T11:40:54;16.50;99.90
24148;DHT22;12309;51.450;-2.624;2023-11-18T11:45:54;16.10;99.90
24148;DHT22;12309;51.450;-2.624;2023-11-18T11:48:24;16.60;99.90
24148;DHT22;12309;51.450;-2.624;2023-11-18T11:53:22;16.10;99.90
24148;DHT22;12309;51.450;-2.624;2023-11-18T11:55:53;16.30;99.90
24148;DHT22;12309;51.450;-2.624;2023-11-18T11:58:35;16.50;99.90
24148;DHT22;12309;51.450;-2.624;2023-11-18T12:01:16;16.40;99.90
24148;DHT22;12309;51.450;-2.624;2023-11-18T12:03:46;16.20;99.90
24148;DHT22;12309;51.450;-2.624;2023-11-18T12:06:18;16.30;99.90
24148;DHT22;12309;51.450;-2.624;2023-11-18T12:08:52;16.10;99.90
24148;DHT22;12309;51.450;-2.624;2023-11-18T12:11:18;16.00;99.90
24148;DHT22;12309;51.450;-2.624;2023-11-18T12:14:02;16.00;99.90
24148;DHT22;12309;51.450;-2.624;2023-11-18T12:19:48;15.70;99.90
24148;DHT22;12309;51.450;-2.624;2023-11-18T12:22:19;16.00;99.90
24148;DHT22;12309;51.450;-2.624;2023-11-18T12:32:58;15.90;99.90
24148;DHT22;12309;51.450;-2.624;2023-11-18T12:35:25;16.00;99.90
24148;DHT22;12309;51.450;-2.624;2023-11-18T12:38:23;16.00;99.90
24148;DHT22;12309;51.450;-2.624;2023-11-18T12:40:57;16.00;99.90
24148;DHT22;12309;51.450;-2.624;2023-11-18T12:43:49;15.90;99.90
24148;DHT22;12309;51.450;-2.624;2023-11-18T12:49:14;15.90;99.90
24148;DHT22;12309;51.450;-2.624;2023-11-18T12:51:49;15.70;99.90
24148;DHT22;12309;51.450;-2.624;2023-11-18T12:54:16;15.80;99.90
24148;DHT22;12309;51.450;-2.624;2023-11-18T12:56:44;15.80;99.90
24148;DHT22;12309;51.450;-2.624;2023-11-18T12:59:16;15.60;99.90
24148;DHT22;12309;51.450;-2.624;2023-11-18T13:01:49;15.80;99.90
24148;DHT22;12309;51.450;-2.624;2023-11-18T13:04:27;15.70;99.90
24148;DHT22;12309;51.450;-2.624;2023-11-18T13:06:53;15.80;99.90
24148;DHT22;12309;51.450;-2.624;2023-11-18T13:09:21;15.80;99.90
24148;DHT22;12309;51.450;-2.624;2023-11-18T13:11:59;15.80;99.90
24148;DHT22;12309;51.450;-2.624;2023-11-18T13:14:26;15.90;99.90
24148;DHT22;12309;51.450;-2.624;2023-11-18T13:16:55;15.90;99.90
24148;DHT22;12309;51.450;-2.624;2023-11-18T13:19:26;15.80;99.90
24148;DHT22;12309;51.450;-2.624;2023-11-18T13:21:57;16.00;99.90
24148;DHT22;12309;51.450;-2.624;2023-11-18T13:24:24;15.80;99.90
24148;DHT22;12309;51.450;-2.624;2023-11-18T13:26:50;15.90;99.90
24148;DHT22;12309;51.450;-2.624;2023-11-18T13:29:17;15.80;99.90
24148;DHT22;12309;51.450;-2.624;2023-11-18T13:31:43;15.70;99.90
24148;DHT22;12309;51.450;-2.624;2023-11-18T13:34:09;17.30;99.90
24148;DHT22;12309;51.450;-2.624;2023-11-18T13:36:36;15.90;99.90
24148;DHT22;12309;51.450;-2.624;2023-11-18T13:39:02;15.80;99.90
24148;DHT22;12309;51.450;-2.624;2023-11-18T13:41:31;15.80;99.90
24148;DHT22;12309;51.450;-2.624;2023-11-18T13:43:57;15.70;99.90
24148;DHT22;12309;51.450;-2.624;2023-11-18T13:46:23;16.00;99.90
24148;DHT22;12309;51.450;-2.624;2023-11-18T13:48:49;16.00;99.90
24148;DHT22;12309;51.450;-2.624;2023-11-18T13:51:16;15.80;99.90
24148;DHT22;12309;51.450;-2.624;2023-11-18T13:53:43;15.80;99.90
24148;DHT22;12309;51.450;-2.624;2023-11-18T13:56:13;16.00;99.90
24148;DHT22;12309;51.450;-2.624;2023-11-18T13:58:41;16.00;99.90
24148;DHT22;12309;51.450;-2.624;2023-11-18T14:01:08;15.90;99.90
24148;DHT22;12309;51.450;-2.624;2023-11-18T14:03:37;15.90;99.90
24148;DHT22;12309;51.450;-2.624;2023-11-18T14:06:06;16.60;99.90
24148;DHT22;12309;51.450;-2.624;2023-11-18T14:08:32;16.20;99.90
24148;DHT22;12309;51.450;-2.624;2023-11-18T14:10:59;16.30;99.90
24148;DHT22;12309;51.450;-2.624;2023-11-18T14:13:26;16.10;99.90
24148;DHT22;12309;51.450;-2.624;2023-11-18T14:15:57;15.80;99.90
24148;DHT22;12309;51.450;-2.624;2023-11-18T14:18:23;16.00;99.90
24148;DHT22;12309;51.450;-2.624;2023-11-18T14:20:48;15.70;99.90
24148;DHT22;12309;51.450;-2.624;2023-11-18T14:23:15;16.00;99.90
24148;DHT22;12309;51.450;-2.624;2023-11-18T14:25:41;15.90;99.90
24148;DHT22;12309;51.450;-2.624;2023-11-18T14:28:07;15.90;99.90
24148;DHT22;12309;51.450;-2.624;2023-11-18T14:33:01;15.80;99.90
24148;DHT22;12309;51.450;-2.624;2023-11-18T14:35:29;15.90;99.90
24148;DHT22;12309;51.450;-2.624;2023-11-18T14:37:55;15.60;99.90
24148;DHT22;12309;51.450;-2.624;2023-11-18T14:40:21;15.70;99.90
24148;DHT22;12309;51.450;-2.624;2023-11-18T14:42:49;15.70;99.90
24148;DHT22;12309;51.450;-2.624;2023-11-18T14:45:16;15.10;99.90
24148;DHT22;12309;51.450;-2.624;2023-11-18T14:47:43;15.50;99.90
24148;DHT22;12309;51.450;-2.624;2023-11-18T14:50:14;15.60;99.90
24148;DHT22;12309;51.450;-2.624;2023-11-18T14:52:46;15.40;99.90
24148;DHT22;12309;51.450;-2.624;2023-11-18T14:55:14;15.10;99.90
24148;DHT22;12309;51.450;-2.624;2023-11-18T14:57:43;15.40;99.90
24148;DHT22;12309;51.450;-2.624;2023-11-18T15:00:10;15.30;99.90
24148;DHT22;12309;51.450;-2.624;2023-11-18T15:02:51;15.30;99.90
24148;DHT22;12309;51.450;-2.624;2023-11-18T15:05:17;15.20;99.90
24148;DHT22;12309;51.450;-2.624;2023-11-18T15:07:50;15.20;99.90
24148;DHT22;12309;51.450;-2.624;2023-11-18T15:10:20;15.30;99.90
24148;DHT22;12309;51.450;-2.624;2023-11-18T15:12:51;15.10;99.90
24148;DHT22;12309;51.450;-2.624;2023-11-18T15:15:22;15.00;99.90
24148;DHT22;12309;51.450;-2.624;2023-11-18T15:17:48;15.00;99.90
24148;DHT22;12309;51.450;-2.624;2023-11-18T15:20:17;15.00;99.90
24148;DHT22;12309;51.450;-2.624;2023-11-18T15:22:48;15.00;99.90
24148;DHT22;12309;51.450;-2.624;2023-11-18T15:25:14;15.10;99.90
24148;DHT22;12309;51.450;-2.624;2023-11-18T15:27:43;15.10;99.90
24148;DHT22;12309;51.450;-2.624;2023-11-18T15:30:12;15.10;99.90
24148;DHT22;12309;51.450;-2.624;2023-11-18T15:32:42;15.10;99.90
24148;DHT22;12309;51.450;-2.624;2023-11-18T15:35:09;15.00;99.90
24148;DHT22;12309;51.450;-2.624;2023-11-18T15:37:40;14.90;99.90
24148;DHT22;12309;51.450;-2.624;2023-11-18T15:40:07;15.00;99.90
24148;DHT22;12309;51.450;-2.624;2023-11-18T15:42:41;14.80;99.90
24148;DHT22;12309;51.450;-2.624;2023-11-18T15:45:14;15.00;99.90
24148;DHT22;12309;51.450;-2.624;2023-11-18T15:47:41;14.10;99.90
24148;DHT22;12309;51.450;-2.624;2023-11-18T15:50:12;14.80;99.90
24148;DHT22;12309;51.450;-2.624;2023-11-18T15:52:38;15.10;99.90
24148;DHT22;12309;51.450;-2.624;2023-11-18T15:55:05;14.80;99.90
24148;DHT22;12309;51.450;-2.624;2023-11-18T15:57:41;15.00;99.90
24148;DHT22;12309;51.450;-2.624;2023-11-18T16:00:08;14.80;99.90
24148;DHT22;12309;51.450;-2.624;2023-11-18T16:02:40;15.00;99.90
24148;DHT22;12309;51.450;-2.624;2023-11-18T16:05:06;14.90;99.90
24148;DHT22;12309;51.450;-2.624;2023-11-18T16:07:32;14.90;99.90
24148;DHT22;12309;51.450;-2.624;2023-11-18T16:09:58;15.00;99.90
24148;DHT22;12309;51.450;-2.624;2023-11-18T16:12:25;15.00;99.90
24148;DHT22;12309;51.450;-2.624;2023-11-18T16:14:54;15.00;99.90
24148;DHT22;12309;51.450;-2.624;2023-11-18T16:17:21;15.00;99.90
24148;DHT22;12309;51.450;-2.624;2023-11-18T16:19:46;14.90;99.90
24148;DHT22;12309;51.450;-2.624;2023-11-18T16:22:12;14.70;99.90
24148;DHT22;12309;51.450;-2.624;2023-11-18T16:24:38;14.50;99.90
24148;DHT22;12309;51.450;-2.624;2023-11-18T16:27:03;14.90;99.90